createdAt,value
2023-04-16T00:02:27.518Z,13.20
2023-04-16T00:04:55.224Z,15.05
2023-04-16T00:07:23.446Z,14.43
2023-04-16T00:09:51.179Z,16.02
2023-04-16T00:12:18.879Z,16.38
2023-04-16T00:14:46.412Z,18.23
2023-04-16T00:17:15.686Z,18.10
2023-04-16T00:19:43.030Z,15.60
2023-04-16T00:22:11.282Z,16.95
2023-04-16T00:24:38.432Z,14.30
2023-04-16T00:27:06.957Z,15.98
2023-04-16T00:29:34.395Z,12.45
2023-04-16T00:32:05.062Z,13.82
2023-04-16T00:34:33.999Z,15.18
2023-04-16T00:37:01.826Z,17.30
2023-04-16T00:39:29.366Z,14.32
2023-04-16T00:41:57.735Z,16.27
2023-04-16T00:44:25.203Z,14.02
2023-04-16T00:46:53.685Z,13.32
2023-04-16T00:49:21.187Z,14.75
2023-04-16T00:51:50.871Z,13.52
2023-04-16T00:54:19.396Z,15.32
2023-04-16T00:56:47.511Z,14.52
2023-04-16T00:59:15.187Z,16.17
2023-04-16T01:01:43.047Z,14.57
2023-04-16T01:04:10.641Z,17.85
2023-04-16T01:06:38.631Z,15.02
2023-04-16T01:09:07.746Z,13.85
2023-04-16T01:11:35.670Z,14.60
2023-04-16T01:14:03.168Z,16.73
2023-04-16T01:16:31.231Z,17.10
2023-04-16T01:18:58.670Z,17.50
2023-04-16T01:21:27.923Z,21.92
2023-04-16T01:23:55.294Z,17.02
2023-04-16T01:26:23.118Z,17.23
2023-04-16T01:28:50.875Z,21.02
2023-04-16T01:31:18.747Z,22.13
2023-04-16T01:33:46.237Z,21.65
2023-04-16T01:36:13.993Z,23.33
2023-04-16T01:38:42.757Z,24.60
2023-04-16T01:41:10.636Z,20.13
2023-04-16T01:43:40.047Z,19.52
2023-04-16T01:46:18.099Z,18.88
2023-04-16T01:48:45.686Z,18.17
2023-04-16T01:51:13.609Z,17.92
2023-04-16T01:53:42.425Z,17.80
2023-04-16T01:56:10.190Z,18.58
2023-04-16T01:58:37.597Z,16.13
2023-04-16T02:01:05.669Z,17.60
2023-04-16T02:03:33.383Z,17.92
2023-04-16T02:06:01.275Z,17.55
2023-04-16T02:08:28.722Z,19.95
2023-04-16T02:10:58.497Z,19.38
2023-04-16T02:13:26.011Z,18.00
2023-04-16T02:15:54.028Z,20.02
2023-04-16T02:18:21.720Z,18.33
2023-04-16T02:20:49.587Z,18.25
2023-04-16T02:23:16.986Z,17.13
2023-04-16T02:25:46.006Z,18.90
2023-04-16T02:28:17.820Z,18.00
2023-04-16T02:30:45.733Z,20.58
2023-04-16T02:33:13.317Z,17.23
2023-04-16T02:35:41.379Z,20.05
2023-04-16T02:38:08.840Z,17.73
2023-04-16T02:40:36.663Z,20.95
2023-04-16T02:43:04.044Z,18.67
2023-04-16T02:45:33.345Z,19.80
2023-04-16T02:48:00.810Z,18.08
2023-04-16T02:50:28.513Z,18.23
2023-04-16T02:52:55.907Z,16.30
2023-04-16T02:55:23.711Z,15.95
2023-04-16T02:57:51.106Z,17.25
2023-04-16T03:00:19.657Z,18.50
2023-04-16T03:02:48.659Z,16.67
2023-04-16T03:05:16.714Z,16.42
2023-04-16T03:07:43.939Z,15.77
2023-04-16T03:10:12.091Z,17.15
2023-04-16T03:12:39.529Z,20.13
2023-04-16T03:15:08.073Z,18.38
2023-04-16T03:17:35.504Z,19.13
2023-04-16T03:20:05.905Z,19.10
2023-04-16T03:22:33.401Z,19.13
2023-04-16T03:25:01.220Z,19.63
2023-04-16T03:27:28.590Z,19.20
2023-04-16T03:29:56.437Z,17.95
2023-04-16T03:32:23.851Z,15.63
2023-04-16T03:34:51.592Z,18.85
2023-04-16T03:37:20.474Z,17.42
2023-04-16T03:39:48.357Z,16.95
2023-04-16T03:42:15.920Z,20.58
2023-04-16T03:44:43.897Z,18.10
2023-04-16T03:47:11.312Z,19.73
2023-04-16T03:49:39.150Z,20.17
2023-04-16T03:52:06.606Z,20.23
2023-04-16T03:54:35.953Z,23.50
2023-04-16T03:57:03.510Z,26.00
2023-04-16T03:59:31.608Z,21.88
2023-04-16T04:01:59.075Z,25.58
2023-04-16T04:04:26.978Z,27.40
2023-04-16T04:06:54.421Z,31.27
2023-04-16T04:09:22.118Z,25.65
2023-04-16T04:11:51.126Z,27.98
2023-04-16T04:14:18.910Z,24.48
2023-04-16T04:16:46.275Z,31.08
2023-04-16T04:19:13.991Z,33.30
2023-04-16T04:21:41.435Z,25.70
2023-04-16T04:24:09.189Z,28.48
2023-04-16T04:26:36.603Z,30.08
2023-04-16T04:29:05.828Z,30.67
2023-04-16T04:31:33.260Z,32.30
2023-04-16T04:34:01.044Z,38.95
2023-04-16T04:36:28.674Z,35.80
2023-04-16T04:38:56.629Z,31.20
2023-04-16T04:41:24.363Z,34.65
2023-04-16T04:43:52.374Z,38.55
2023-04-16T04:46:21.353Z,35.72
2023-04-16T04:48:49.239Z,35.38
2023-04-16T04:51:16.560Z,32.55
2023-04-16T04:53:44.388Z,26.50
2023-04-16T04:56:13.044Z,28.45
2023-04-16T04:58:41.474Z,27.42
2023-04-16T05:01:08.896Z,25.58
2023-04-16T05:03:38.431Z,27.15
2023-04-16T05:06:06.899Z,27.52
2023-04-16T05:08:34.535Z,25.92
2023-04-16T05:11:02.385Z,24.75
2023-04-16T05:13:30.073Z,27.80
2023-04-16T05:15:57.499Z,25.63
2023-04-16T05:18:25.395Z,34.15
2023-04-16T05:20:54.273Z,23.60
2023-04-16T05:23:22.382Z,24.60
2023-04-16T05:25:49.780Z,25.63
2023-04-16T05:28:17.533Z,28.13
2023-04-16T05:30:44.965Z,24.85
2023-04-16T05:33:12.973Z,27.10
2023-04-16T05:35:40.416Z,20.83
2023-04-16T05:38:09.628Z,27.33
2023-04-16T05:40:37.085Z,24.60
2023-04-16T05:43:04.867Z,27.02
2023-04-16T05:45:32.067Z,26.92
2023-04-16T05:47:59.983Z,29.55
2023-04-16T05:50:27.547Z,26.55
2023-04-16T05:52:55.290Z,28.17
2023-04-16T05:55:24.252Z,35.45
2023-04-16T05:57:52.119Z,29.63
2023-04-16T06:00:19.637Z,22.65
2023-04-16T06:02:47.611Z,27.23
2023-04-16T06:05:15.148Z,33.75
2023-04-16T06:07:43.035Z,26.48
2023-04-16T06:10:11.158Z,32.10
2023-04-16T06:12:40.351Z,41.72
2023-04-16T06:15:09.177Z,37.65
2023-04-16T06:17:37.005Z,27.67
2023-04-16T06:20:05.024Z,27.42
2023-04-16T06:22:32.981Z,25.48
2023-04-16T06:25:00.774Z,37.30
2023-04-16T06:27:28.789Z,22.17
2023-04-16T06:29:57.969Z,27.23
2023-04-16T06:32:25.853Z,28.15
2023-04-16T06:34:53.436Z,26.73
2023-04-16T06:37:21.122Z,28.35
2023-04-16T06:39:48.323Z,27.75
2023-04-16T06:42:16.453Z,29.80
2023-04-16T06:44:43.772Z,27.55
2023-04-16T06:47:12.941Z,27.23
2023-04-16T06:49:40.728Z,28.63
2023-04-16T06:52:08.501Z,28.10
2023-04-16T06:54:36.146Z,24.17
2023-04-16T06:57:04.315Z,26.95
2023-04-16T06:59:31.986Z,25.35
2023-04-16T07:01:59.847Z,27.30
2023-04-16T07:04:28.865Z,25.15
2023-04-16T07:06:57.001Z,24.98
2023-04-16T07:09:24.301Z,26.48
2023-04-16T07:11:52.044Z,27.42
2023-04-16T07:14:19.457Z,32.30
2023-04-16T07:16:47.572Z,25.00
2023-04-16T07:19:15.112Z,24.90
2023-04-16T07:21:44.515Z,25.55
2023-04-16T07:24:12.295Z,28.17
2023-04-16T07:26:40.144Z,26.17
2023-04-16T07:29:07.749Z,29.17
2023-04-16T07:31:35.788Z,26.45
2023-04-16T07:34:03.378Z,24.42
2023-04-16T07:36:31.132Z,28.83
2023-04-16T07:39:00.039Z,31.27
2023-04-16T07:41:28.263Z,29.85
2023-04-16T07:43:55.826Z,32.53
2023-04-16T07:46:24.977Z,31.25
2023-04-16T07:48:54.073Z,40.90
2023-04-16T07:51:23.623Z,33.40
2023-04-16T07:53:51.005Z,27.35
2023-04-16T07:56:20.478Z,31.63
2023-04-16T07:58:47.888Z,30.52
2023-04-16T08:01:15.656Z,31.58
2023-04-16T08:03:43.512Z,30.77
2023-04-16T08:06:11.604Z,36.15
2023-04-16T08:08:39.017Z,31.63
2023-04-16T08:11:06.975Z,34.70
2023-04-16T08:13:35.876Z,31.17
2023-04-16T08:16:04.172Z,34.25
2023-04-16T08:18:31.731Z,38.58
2023-04-16T08:20:59.413Z,32.65
2023-04-16T08:23:26.930Z,35.15
2023-04-16T08:25:55.141Z,34.60
2023-04-16T08:28:22.453Z,33.85
2023-04-16T08:30:52.031Z,38.10
2023-04-16T08:33:19.565Z,33.33
2023-04-16T08:35:47.416Z,34.63
2023-04-16T08:38:14.960Z,35.42
2023-04-16T08:40:43.833Z,32.72
2023-04-16T08:43:13.570Z,37.42
2023-04-16T08:45:42.043Z,31.98
2023-04-16T08:48:12.045Z,31.77
2023-04-16T08:50:41.298Z,27.33
2023-04-16T08:53:15.187Z,27.00
2023-04-16T08:55:48.135Z,27.52
2023-04-16T08:58:18.678Z,31.00
2023-04-16T09:00:48.580Z,34.20
2023-04-16T09:03:17.939Z,30.95
2023-04-16T09:05:47.164Z,26.90
2023-04-16T09:08:14.908Z,28.52
2023-04-16T09:10:43.598Z,25.80
2023-04-16T09:13:11.083Z,26.20
2023-04-16T09:15:40.010Z,27.10
2023-04-16T09:18:07.728Z,23.45
2023-04-16T09:20:36.932Z,25.48
2023-04-16T09:23:04.446Z,25.48
2023-04-16T09:25:33.872Z,21.48
2023-04-16T09:28:01.439Z,19.92
2023-04-16T09:30:29.317Z,17.33
2023-04-16T09:33:15.420Z,16.90
2023-04-16T09:35:48.857Z,20.38
2023-04-16T09:38:17.131Z,21.25
2023-04-16T09:40:45.257Z,20.60
2023-04-16T09:43:14.091Z,19.95
2023-04-16T09:45:49.463Z,16.42
2023-04-16T09:48:27.873Z,20.27
2023-04-16T09:50:57.301Z,17.63
2023-04-16T09:53:25.377Z,17.85
2023-04-16T09:55:53.134Z,16.00
2023-04-16T09:58:20.523Z,17.08
2023-04-16T10:00:48.279Z,16.15
2023-04-16T10:03:15.699Z,16.65
2023-04-16T10:05:43.674Z,15.48
2023-04-16T10:08:16.655Z,14.77
2023-04-16T10:10:45.141Z,12.55
2023-04-16T10:13:12.825Z,12.35
2023-04-16T10:15:41.464Z,12.35
2023-04-16T10:18:09.662Z,12.60
2023-04-16T10:20:37.872Z,11.57
2023-04-16T10:23:06.418Z,12.75
2023-04-16T10:25:35.743Z,11.05
2023-04-16T10:28:03.524Z,9.68
2023-04-16T10:30:31.577Z,9.45
2023-04-16T10:33:00.686Z,9.50
2023-04-16T10:35:28.605Z,10.63
2023-04-16T10:37:57.521Z,10.88
2023-04-16T10:40:26.855Z,6.65
2023-04-16T10:42:56.874Z,6.80
2023-04-16T10:45:31.152Z,8.27
2023-04-16T10:47:58.801Z,9.10
2023-04-16T10:50:35.277Z,7.30
2023-04-16T10:53:17.908Z,7.55
2023-04-16T10:56:09.987Z,5.72
2023-04-16T10:58:38.836Z,6.07
2023-04-16T11:01:13.121Z,6.28
2023-04-16T11:03:46.620Z,5.43
2023-04-16T11:06:15.534Z,4.47
2023-04-16T11:08:53.978Z,5.78
2023-04-16T11:11:22.937Z,5.35
2023-04-16T11:13:55.913Z,6.50
2023-04-16T11:16:25.391Z,7.00
2023-04-16T11:18:53.949Z,6.10
2023-04-16T11:21:23.937Z,5.80
2023-04-16T11:23:53.551Z,5.10
2023-04-16T11:26:24.025Z,7.00
2023-04-16T11:28:54.379Z,5.63
2023-04-16T11:31:22.254Z,6.53
2023-04-16T11:33:49.729Z,6.40
2023-04-16T11:36:17.627Z,6.68
2023-04-16T11:38:45.643Z,7.85
2023-04-16T11:41:19.985Z,6.07
2023-04-16T11:43:47.323Z,7.57
2023-04-16T11:46:24.514Z,5.72
2023-04-16T11:48:55.472Z,6.20
2023-04-16T11:51:23.709Z,7.32
2023-04-16T11:53:52.044Z,8.30
2023-04-16T11:56:27.308Z,7.13
2023-04-16T11:59:08.268Z,5.97
2023-04-16T12:01:39.126Z,7.45
2023-04-16T12:04:07.471Z,6.53
2023-04-16T12:06:35.647Z,6.85
2023-04-16T12:09:24.155Z,6.68
2023-04-16T12:11:51.941Z,7.55
2023-04-16T12:14:21.036Z,8.25
2023-04-16T12:16:50.237Z,7.45
2023-04-16T12:19:18.336Z,7.38
2023-04-16T12:21:51.193Z,8.10
2023-04-16T12:24:19.390Z,6.00
2023-04-16T12:26:48.572Z,6.65
2023-04-16T12:29:17.381Z,5.65
2023-04-16T12:31:45.777Z,8.15
2023-04-16T12:34:14.978Z,6.50
2023-04-16T12:36:43.529Z,6.57
2023-04-16T12:39:11.244Z,5.13
2023-04-16T12:41:40.182Z,4.53
2023-04-16T12:44:09.296Z,4.78
2023-04-16T12:46:36.953Z,3.90
2023-04-16T12:49:04.396Z,5.25
2023-04-16T12:51:34.701Z,5.82
2023-04-16T12:54:03.100Z,6.47
2023-04-16T12:56:31.663Z,5.75
2023-04-16T12:58:58.982Z,8.57
2023-04-16T13:01:26.976Z,14.25
2023-04-16T13:03:54.549Z,5.43
2023-04-16T13:06:22.700Z,7.57
2023-04-16T13:08:51.572Z,5.60
2023-04-16T13:11:19.301Z,5.03
2023-04-16T13:13:46.665Z,4.43
2023-04-16T13:16:14.538Z,5.60
2023-04-16T13:18:41.828Z,3.42
2023-04-16T13:21:09.669Z,5.28
2023-04-16T13:23:37.084Z,5.13
2023-04-16T13:26:06.271Z,3.90
2023-04-16T13:28:33.869Z,3.72
2023-04-16T13:31:04.267Z,4.75
2023-04-16T13:33:33.089Z,4.82
2023-04-16T13:36:00.916Z,4.15
2023-04-16T13:38:28.454Z,4.50
2023-04-16T13:40:56.226Z,5.43
2023-04-16T13:43:24.890Z,4.18
2023-04-16T13:45:52.582Z,3.58
2023-04-16T13:48:20.049Z,3.45
2023-04-16T13:50:47.785Z,4.03
2023-04-16T13:53:15.155Z,4.93
2023-04-16T13:55:43.182Z,4.55
2023-04-16T13:58:10.655Z,4.00
2023-04-16T14:00:39.663Z,5.40
2023-04-16T14:03:07.281Z,4.10
2023-04-16T14:05:35.171Z,3.53
2023-04-16T14:08:02.640Z,4.38
2023-04-16T14:10:31.655Z,9.98
2023-04-16T14:12:59.150Z,3.80
2023-04-16T14:15:26.882Z,4.28
2023-04-16T14:17:55.743Z,4.03
2023-04-16T14:20:23.642Z,3.83
2023-04-16T14:22:50.943Z,3.95
2023-04-16T14:25:18.720Z,3.10
2023-04-16T14:27:46.204Z,5.97
2023-04-16T14:30:14.226Z,4.07
2023-04-16T14:32:41.547Z,3.08
2023-04-16T14:35:11.018Z,4.82
2023-04-16T14:37:38.388Z,3.92
2023-04-16T14:40:07.462Z,3.80
2023-04-16T14:42:35.017Z,4.63
2023-04-16T14:45:03.306Z,3.13
2023-04-16T14:47:30.781Z,3.30
2023-04-16T14:49:58.675Z,6.10
2023-04-16T14:52:27.701Z,3.80
2023-04-16T14:54:55.565Z,3.40
2023-04-16T14:57:22.967Z,2.67
2023-04-16T14:59:50.798Z,4.25
2023-04-16T15:02:18.287Z,3.60
2023-04-16T15:04:46.222Z,3.15
2023-04-16T15:07:13.706Z,4.70
2023-04-16T15:09:42.832Z,3.72
2023-04-16T15:12:10.086Z,3.78
2023-04-16T15:14:38.034Z,4.82
2023-04-16T15:17:05.555Z,3.42
2023-04-16T15:19:33.396Z,3.38
2023-04-16T15:22:01.067Z,6.40
2023-04-16T15:24:28.872Z,3.78
2023-04-16T15:26:57.666Z,3.10
2023-04-16T15:29:25.501Z,3.22
2023-04-16T15:31:52.879Z,3.88
2023-04-16T15:34:20.616Z,4.65
2023-04-16T15:36:47.967Z,4.53
2023-04-16T15:39:15.691Z,2.63
2023-04-16T15:41:57.390Z,5.65
2023-04-16T15:44:30.378Z,4.05
2023-04-16T15:46:57.845Z,3.63
2023-04-16T15:49:25.783Z,4.10
2023-04-16T15:51:53.282Z,5.38
2023-04-16T15:54:21.093Z,2.75
2023-04-16T15:56:48.370Z,3.60
2023-04-16T15:59:16.078Z,3.17
2023-04-16T16:01:45.083Z,3.85
2023-04-16T16:04:13.016Z,3.75
2023-04-16T16:06:40.506Z,4.10
2023-04-16T16:09:08.453Z,4.78
2023-04-16T16:11:37.012Z,3.55
2023-04-16T16:14:04.853Z,3.17
2023-04-16T16:16:32.332Z,3.35
2023-04-16T16:19:01.627Z,3.03
2023-04-16T16:21:30.168Z,4.28
2023-04-16T16:23:57.914Z,6.88
2023-04-16T16:26:25.247Z,6.88
2023-04-16T16:28:52.941Z,6.25
2023-04-16T16:31:20.277Z,4.68
2023-04-16T16:33:48.063Z,5.88
2023-04-16T16:36:16.886Z,4.10
2023-04-16T16:38:44.675Z,5.68
2023-04-16T16:41:12.061Z,4.90
2023-04-16T16:43:39.783Z,74.25
2023-04-16T16:46:07.121Z,7.82
2023-04-16T16:48:34.954Z,6.68
2023-04-16T16:51:02.250Z,4.80
2023-04-16T16:53:31.363Z,5.40
2023-04-16T16:55:58.667Z,5.55
2023-04-16T16:58:26.348Z,5.35
2023-04-16T17:00:53.652Z,7.07
2023-04-16T17:03:21.500Z,6.28
2023-04-16T17:05:49.025Z,6.47
2023-04-16T17:08:16.986Z,6.40
2023-04-16T17:10:45.747Z,5.07
2023-04-16T17:13:13.625Z,5.85
2023-04-16T17:15:41.556Z,7.15
2023-04-16T17:18:09.239Z,6.25
2023-04-16T17:20:36.664Z,6.35
2023-04-16T17:23:04.493Z,5.47
2023-04-16T17:25:32.133Z,5.03
2023-04-16T17:28:01.317Z,5.07
2023-04-16T17:30:30.593Z,6.18
2023-04-16T17:32:58.344Z,9.80
2023-04-16T17:35:25.936Z,10.18
2023-04-16T17:37:53.788Z,6.55
2023-04-16T17:40:21.241Z,5.93
2023-04-16T17:42:49.328Z,7.75
2023-04-16T17:45:18.302Z,6.88
2023-04-16T17:47:46.193Z,7.25
2023-04-16T17:50:13.636Z,7.50
2023-04-16T17:52:41.477Z,8.15
2023-04-16T17:55:10.908Z,5.55
2023-04-16T17:57:38.785Z,7.95
2023-04-16T18:00:07.263Z,6.13
2023-04-16T18:02:36.587Z,6.65
2023-04-16T18:05:04.742Z,5.97
2023-04-16T18:07:32.616Z,5.32
2023-04-16T18:10:00.178Z,5.80
2023-04-16T18:12:27.993Z,6.25
2023-04-16T18:14:55.313Z,7.10
2023-04-16T18:17:23.133Z,7.38
2023-04-16T18:19:51.938Z,9.23
2023-04-16T18:22:19.640Z,8.50
2023-04-16T18:24:46.988Z,9.98
2023-04-16T18:27:14.783Z,8.70
2023-04-16T18:29:44.102Z,11.05
2023-04-16T18:32:12.939Z,10.23
2023-04-16T18:34:40.419Z,7.63
2023-04-16T18:37:09.836Z,9.45
2023-04-16T18:39:37.233Z,6.63
2023-04-16T18:42:05.235Z,8.02
2023-04-16T18:44:32.756Z,8.02
2023-04-16T18:47:00.526Z,10.63
2023-04-16T18:49:28.117Z,9.50
2023-04-16T18:51:55.919Z,9.27
2023-04-16T18:54:25.017Z,12.05
2023-04-16T18:56:52.778Z,9.15
2023-04-16T18:59:20.316Z,9.00
2023-04-16T19:01:48.149Z,8.75
2023-04-16T19:04:15.625Z,8.50
2023-04-16T19:06:43.303Z,8.63
2023-04-16T19:09:11.659Z,9.93
2023-04-16T19:11:41.203Z,10.60
2023-04-16T19:14:08.595Z,10.25
2023-04-16T19:16:36.500Z,9.52
2023-04-16T19:19:03.883Z,10.95
2023-04-16T19:21:31.800Z,9.20
2023-04-16T19:23:59.222Z,10.70
2023-04-16T19:26:26.976Z,10.88
2023-04-16T19:28:55.860Z,11.15
2023-04-16T19:31:23.809Z,11.75
2023-04-16T19:33:51.140Z,14.02
2023-04-16T19:36:18.962Z,14.82
2023-04-16T19:38:46.346Z,11.65
2023-04-16T19:41:14.030Z,10.43
2023-04-16T19:43:41.253Z,9.88
2023-04-16T19:46:10.467Z,10.65
2023-04-16T19:48:37.809Z,11.35
2023-04-16T19:51:05.732Z,10.57
2023-04-16T19:53:33.088Z,10.10
2023-04-16T19:56:00.794Z,9.95
2023-04-16T19:58:28.192Z,10.10
2023-04-16T20:00:55.956Z,10.85
2023-04-16T20:03:24.836Z,10.50
2023-04-16T20:05:52.846Z,13.90
2023-04-16T20:08:20.236Z,14.07
2023-04-16T20:10:48.020Z,14.07
2023-04-16T20:13:17.952Z,11.02
2023-04-16T20:15:46.594Z,12.52
2023-04-16T20:18:13.959Z,11.15
2023-04-16T20:20:43.232Z,13.07
2023-04-16T20:23:10.564Z,13.80
2023-04-16T20:25:41.249Z,10.73
2023-04-16T20:28:08.663Z,12.65
2023-04-16T20:30:36.527Z,12.13
2023-04-16T20:33:04.066Z,10.13
2023-04-16T20:35:31.796Z,10.80
2023-04-16T20:38:00.720Z,9.18
2023-04-16T20:40:28.421Z,9.60
2023-04-16T20:42:55.801Z,10.77
2023-04-16T20:45:23.599Z,13.40
2023-04-16T20:47:51.149Z,16.42
2023-04-16T20:50:19.022Z,14.55
2023-04-16T20:52:46.425Z,11.85
2023-04-16T20:55:15.588Z,13.35
2023-04-16T20:57:42.977Z,12.05
2023-04-16T21:00:11.575Z,9.77
2023-04-16T21:02:39.093Z,9.95
2023-04-16T21:05:07.620Z,10.43
2023-04-16T21:07:35.010Z,10.23
2023-04-16T21:10:02.789Z,10.48
2023-04-16T21:12:31.452Z,11.60
2023-04-16T21:14:59.163Z,11.60
2023-04-16T21:17:26.591Z,11.70
2023-04-16T21:19:54.413Z,10.10
2023-04-16T21:22:21.800Z,10.82
2023-04-16T21:24:49.579Z,12.93
2023-04-16T21:27:17.014Z,13.30
2023-04-16T21:29:46.272Z,12.07
2023-04-16T21:32:13.645Z,12.82
2023-04-16T21:34:41.358Z,12.77
2023-04-16T21:37:13.187Z,14.43
2023-04-16T21:42:08.045Z,10.90
2023-04-16T21:44:35.869Z,14.40
2023-04-16T21:47:05.065Z,15.45
2023-04-16T21:49:32.900Z,12.48
2023-04-16T21:52:00.262Z,12.35
2023-04-16T21:54:28.045Z,11.55
2023-04-16T21:56:55.396Z,10.32
2023-04-16T21:59:22.996Z,12.05
2023-04-16T22:01:50.523Z,11.77
2023-04-16T22:04:19.771Z,10.35
2023-04-16T22:06:47.203Z,13.35
2023-04-16T22:09:14.984Z,10.85
2023-04-16T22:11:42.306Z,13.55
2023-04-16T22:14:10.081Z,13.30
2023-04-16T22:16:37.513Z,12.07
2023-04-16T22:19:05.255Z,13.23
2023-04-16T22:21:34.111Z,12.48
2023-04-16T22:24:01.943Z,12.05
2023-04-16T22:26:29.273Z,12.98
2023-04-16T22:28:56.905Z,12.25
2023-04-16T22:31:24.338Z,12.02
2023-04-16T22:33:52.146Z,13.93
2023-04-16T22:36:19.466Z,13.80
2023-04-16T22:38:48.691Z,16.15
2023-04-16T22:41:16.165Z,12.27
2023-04-16T22:43:43.832Z,13.55
2023-04-16T22:46:11.270Z,13.10
2023-04-16T22:48:39.497Z,15.48
2023-04-16T22:51:08.715Z,15.30
2023-04-16T22:53:36.451Z,14.48
2023-04-16T22:56:05.842Z,15.73
2023-04-16T22:58:33.808Z,14.65
2023-04-16T23:01:01.039Z,17.13
2023-04-16T23:03:28.881Z,15.02
2023-04-16T23:05:56.323Z,15.48
2023-04-16T23:08:24.525Z,15.48
2023-04-16T23:10:51.914Z,17.00
2023-04-16T23:13:21.029Z,16.02
2023-04-16T23:15:48.406Z,17.42
2023-04-16T23:18:16.174Z,15.88
2023-04-16T23:20:43.419Z,15.15
2023-04-16T23:23:11.087Z,13.57
2023-04-16T23:25:41.072Z,14.27
2023-04-16T23:28:08.844Z,13.88
2023-04-16T23:30:37.768Z,14.48
2023-04-16T23:33:05.575Z,15.30
2023-04-16T23:35:32.954Z,15.60
2023-04-16T23:38:00.742Z,15.65
2023-04-16T23:40:28.143Z,11.65
2023-04-16T23:42:55.811Z,14.95
2023-04-16T23:45:23.187Z,12.85
2023-04-16T23:47:52.561Z,16.40
2023-04-16T23:50:20.048Z,14.23
2023-04-16T23:52:47.682Z,14.07
2023-04-16T23:55:14.956Z,15.00
2023-04-16T23:57:42.733Z,14.98
